Latest Weather Observations for Mandurah

IDW60801

Issued at 4:04 pm WST Saturday 27 May 2017 (issued every 30 minutes, with the page automatically refreshed every 10 minutes)

About weather observations | Map of weather stations | Latest weather observations for WA | Other Formats
Station Details ID: 009977 Name: MANDURAH Lat: -32.52 Lon: 115.71 Height: 3.0 m
Data from the previous 72 hours. | See also: Recent months at Mandurah
Date/Time
WST
Temp
°C
App
Temp
°C
Dew
Point
°C
Rel
Hum
%
Delta-T
°C
Wind Press
QNH
hPa
Press
MSL
hPa
Rain since
9am
mm
Dir  Spd
km/h
Gust
km/h
Spd
kts
Gust
kts
27/04:00pm 17.3 14.9 6.8 50 5.2 SE 9 15 5 8 1025.1 1025.1 0.0
27/03:30pm 17.0 14.2 6.8 51 5.0 S 11 17 6 9 1024.9 1024.9 0.0
27/03:00pm 17.0 13.9 7.1 52 4.9 S 13 19 7 10 1024.9 1024.9 0.0
27/02:30pm 17.1 14.2 6.6 50 5.2 S 11 17 6 9 1025.0 1025.0 0.0
27/02:00pm 17.0 14.6 6.8 51 5.0 SSE 9 17 5 9 1025.2 1025.2 0.0
27/01:30pm 16.9 14.3 6.1 49 5.3 SE 9 15 5 8 1025.4 1025.4 0.0
27/01:00pm 16.7 14.6 6.5 51 5.0 SSE 7 13 4 7 1025.6 1025.6 0.0
27/12:30pm 16.6 14.1 6.7 52 4.9 SSE 9 15 5 8 1025.8 1025.8 0.0
27/12:00pm 17.1 14.5 6.3 49 5.3 ESE 9 15 5 8 1026.2 1026.2 0.0
27/11:30am 16.1 13.7 6.8 54 4.6 SE 9 17 5 9 1026.5 1026.5 0.0
27/11:00am 15.6 12.8 7.1 57 4.2 SE 11 17 6 9 1026.8 1026.8 0.0
27/10:30am 14.7 11.7 7.5 62 3.6 SE 13 19 7 10 1027.0 1027.0 0.0
27/10:00am 13.9 11.2 7.4 65 3.2 SE 11 15 6 8 1027.1 1027.1 0.0
27/09:30am 13.2 10.8 6.8 65 3.1 SSE 9 13 5 7 1027.0 1027.0 0.0
27/09:00am 12.2 9.8 6.9 70 2.5 SE 9 13 5 7 1026.7 1026.7 0.0
27/08:30am 11.5 9.2 7.6 77 1.9 SE 9 13 5 7 1026.4 1026.4 0.0
27/08:00am 11.1 9.5 7.8 80 1.6 SE 6 9 3 5 1026.1 1026.1 0.0
27/07:30am 10.8 9.0 7.3 79 1.7 SE 6 9 3 5 1025.7 1025.7 0.0
27/07:00am 10.6 8.5 6.7 77 1.8 SE 7 9 4 5 1025.3 1025.3 0.0
27/06:30am 11.2 9.3 6.9 75 2.0 SE 6 9 3 5 1025.0 1025.0 0.0
27/06:00am 11.8 9.6 7.7 76 2.0 SSE 9 17 5 9 1024.8 1024.8 0.0
27/05:30am 12.3 10.1 7.8 74 2.2 SSE 9 13 5 7 1024.6 1024.6 0.0
27/05:00am 12.5 9.9 7.8 73 2.3 SSE 11 17 6 9 1024.4 1024.4 0.0
27/04:30am 12.6 10.1 8.3 75 2.1 SSE 11 17 6 9 1024.3 1024.3 0.0
27/04:00am 12.9 11.0 9.0 77 2.0 SSE 9 17 5 9 1024.3 1024.3 0.0
27/03:30am 12.7 10.5 9.2 79 1.8 SSE 11 17 6 9 1024.4 1024.4 0.0
27/03:00am 12.5 9.9 9.3 81 1.6 SSE 13 17 7 9 1024.3 1024.3 0.0
27/02:30am 12.6 9.7 9.6 82 1.5 SSE 15 20 8 11 1024.3 1024.3 0.0
27/02:00am 12.6 10.1 9.8 83 1.4 SSE 13 19 7 10 1024.2 1024.2 0.0
27/01:30am 12.4 10.0 10.0 85 1.2 SSE 13 17 7 9 1024.2 1024.2 0.0
27/01:00am 12.6 10.6 10.1 85 1.3 SSE 11 15 6 8 1024.1 1024.1 0.0
27/12:30am 12.6 10.2 10.1 85 1.3 SSE 13 17 7 9 1024.0 1024.0 0.0
27/12:00am 12.8 10.8 10.3 85 1.3 SSE 11 17 6 9 1024.0 1024.0 0.0
 
Date/Time
WST
Temp
°C
App
Temp
°C
Dew
Point
°C
Rel
Hum
%
Delta-T
°C
Wind Press
QNH
hPa
Press
MSL
hPa
Rain since
9am
mm
Dir  Spd
km/h
Gust
km/h
Spd
kts
Gust
kts
26/11:30pm 13.0 10.7 10.5 85 1.3 SSE 13 20 7 11 1023.8 1023.8 0.0
26/11:00pm 13.1 10.8 10.5 84 1.3 SSE 13 17 7 9 1023.8 1023.8 0.0
26/10:30pm 13.4 11.0 10.2 81 1.7 S 13 19 7 10 1023.7 1023.7 0.0
26/10:00pm 13.8 11.4 10.0 78 2.0 S 13 19 7 10 1023.6 1023.6 0.0
26/09:30pm 14.3 11.9 10.1 76 2.2 S 13 20 7 11 1023.4 1023.4 0.0
26/09:00pm 14.9 12.2 10.3 74 2.4 SSE 15 24 8 13 1023.2 1023.2 0.0
26/08:30pm 15.1 12.7 10.1 72 2.6 SSE 13 20 7 11 1023.0 1023.0 0.0
26/08:00pm 15.5 13.7 10.7 73 2.5 S 11 19 6 10 1022.7 1022.7 0.0
26/07:30pm 15.8 14.7 10.6 71 2.8 S 7 13 4 7 1022.3 1022.3 0.0
26/07:00pm 16.0 14.5 10.5 70 2.9 S 9 15 5 8 1021.9 1021.9 0.0
26/06:30pm 16.1 15.0 10.8 71 2.8 S 7 13 4 7 1021.6 1021.6 0.0
26/06:00pm 15.8 15.2 10.3 70 2.9 SSW 4 7 2 4 1021.3 1021.3 0.0
26/05:30pm 16.1 14.8 10.0 67 3.2 SSW 7 13 4 7 1021.0 1021.0 0.0
26/05:00pm 16.7 15.4 9.9 64 3.6 SSW 7 13 4 7 1020.9 1020.9 0.0
26/04:30pm 16.9 14.4 9.6 62 3.8 SSW 13 20 7 11 1020.8 1020.8 0.0
26/04:00pm 17.4 15.2 9.3 59 4.2 S 11 17 6 9 1020.8 1020.8 0.0
26/03:30pm 17.7 15.4 9.1 57 4.5 S 11 20 6 11 1020.6 1020.6 0.0
26/03:00pm 18.1 15.3 8.7 54 4.8 S 13 22 7 12 1020.6 1020.6 0.0
26/02:30pm 18.0 14.8 8.6 54 4.9 S 15 20 8 11 1020.5 1020.5 0.0
26/02:00pm 18.4 15.3 8.9 54 4.9 S 15 22 8 12 1020.5 1020.5 0.0
26/01:30pm 18.2 15.8 8.5 53 5.0 SSE 11 19 6 10 1020.5 1020.5 0.0
26/01:00pm 18.1 15.5 9.5 57 4.5 SSE 13 17 7 9 1020.7 1020.7 0.0
26/12:30pm 17.5 14.7 10.1 62 3.9 SSE 15 22 8 12 1021.0 1021.0 0.0
26/12:00pm 17.1 14.5 10.7 66 3.4 SSE 15 24 8 13 1021.3 1021.3 0.0
26/11:30am 16.4 14.1 10.3 67 3.2 SSE 13 20 7 11 1021.6 1021.6 0.0
26/11:00am 16.3 14.0 10.4 68 3.1 SSE 13 22 7 12 1021.8 1021.8 0.0
26/10:30am 16.1 13.5 10.8 71 2.8 SSE 15 24 8 13 1021.7 1021.7 0.0
26/10:00am 16.3 14.3 10.2 67 3.2 SSE 11 19 6 10 1021.6 1021.6 0.0
26/09:30am 16.1 14.2 10.4 69 3.0 SSE 11 17 6 9 1021.4 1021.4 0.0
26/09:00am 15.9 15.1 11.7 76 2.3 SE 7 13 4 7 1021.1 1021.1 1.8
26/08:30am 15.2 14.7 12.5 84 1.5 SE 7 13 4 7 1020.7 1020.7 1.8
26/08:00am 15.0 14.2 13.0 88 1.1 SE 9 13 5 7 1020.6 1020.6 1.8
26/07:30am 14.9 14.7 13.6 92 0.7 SE 7 11 4 6 1020.3 1020.3 1.8
26/07:00am 15.3 15.6 13.5 89 1.0 SE 4 7 2 4 1020.0 1020.0 1.8
26/06:30am 15.9 15.8 13.4 85 1.4 SSE 6 9 3 5 1019.7 1019.7 1.8
26/06:00am 16.2 14.8 10.9 71 2.8 S 9 11 5 6 1019.3 1019.3 1.8
26/05:30am 16.5 14.8 12.5 77 2.2 SSW 13 20 7 11 1019.0 1019.0 1.8
26/05:00am 15.8 15.9 15.6 99 0.1 S 9 20 5 11 1018.8 1018.8 1.8
26/04:30am 16.0 15.1 15.8 99 0.1 S 15 22 8 12 1018.6 1018.6 1.8
26/04:00am 16.6 16.2 16.1 97 0.3 SSW 13 22 7 12 1018.5 1018.5 1.6
26/03:30am 17.8 15.9 15.8 88 1.2 SW 20 32 11 17 1018.1 1018.1 1.0
26/03:00am 17.8 15.9 15.2 85 1.5 WSW 19 33 10 18 1018.0 1018.0 1.0
26/02:30am 17.8 15.4 13.9 78 2.2 W 19 35 10 19 1018.0 1018.0 1.0
26/02:00am 19.1 16.6 13.5 70 3.2 WNW 19 26 10 14 1017.8 1017.8 0.0
26/01:30am 18.8 16.9 13.0 69 3.3 W 15 24 8 13 1018.0 1018.0 0.0
26/01:00am 18.8 17.0 13.2 70 3.2 W 15 28 8 15 1018.2 1018.2 0.0
26/12:30am 18.7 16.7 14.0 74 2.7 WNW 17 28 9 15 1018.3 1018.3 0.0
26/12:00am 18.6 17.3 13.7 73 2.8 NW 13 15 7 8 1018.4 1018.4 0.0
 
Date/Time
WST
Temp
°C
App
Temp
°C
Dew
Point
°C
Rel
Hum
%
Delta-T
°C
Wind Press
QNH
hPa
Press
MSL
hPa
Rain since
9am
mm
Dir  Spd
km/h
Gust
km/h
Spd
kts
Gust
kts
25/11:30pm 18.5 15.6 12.9 70 3.1 W 20 33 11 18 1018.7 1018.7 0.0
25/11:00pm 18.8 17.0 12.1 65 3.7 WNW 13 19 7 10 1018.9 1018.9 0.0
25/10:30pm 18.6 16.7 11.9 65 3.7 WNW 13 17 7 9 1019.0 1019.0 0.0
25/10:00pm 17.9 16.1 10.8 63 3.8 W 11 22 6 12 1019.4 1019.4 0.0
25/09:30pm 18.0 16.1 10.4 61 4.1 WSW 11 19 6 10 1019.4 1019.4 0.0
25/09:00pm 18.1 15.5 10.7 62 4.0 W 15 24 8 13 1019.4 1019.4 0.0
25/08:30pm 18.3 15.3 10.7 61 4.1 W 17 28 9 15 1019.3 1019.3 0.0
25/08:00pm 18.4 15.4 10.8 61 4.1 W 17 24 9 13 1019.2 1019.2 0.0
25/07:30pm 18.5 15.7 11.3 63 3.9 W 17 26 9 14 1019.2 1019.2 0.0
25/07:00pm 18.7 15.9 11.5 63 3.9 W 17 22 9 12 1019.0 1019.0 0.0
25/06:30pm 18.8 16.2 11.9 64 3.8 W 17 24 9 13 1018.8 1018.8 0.0
25/06:00pm 19.2 16.2 12.0 63 4.0 W 19 28 10 15 1018.7 1018.7 0.0
25/05:30pm 19.4 17.0 12.7 65 3.8 W 17 24 9 13 1018.7 1018.7 0.0
25/05:00pm 19.5 16.9 13.9 70 3.2 NW 20 24 11 13 1018.6 1018.6 0.0
25/04:30pm 19.3 16.5 13.3 68 3.4 NW 20 28 11 15 1018.7 1018.7 0.0
25/04:00pm 19.5 16.6 13.0 66 3.7 NNW 20 26 11 14 1018.6 1018.6 0.0
25/03:30pm 19.6 16.6 12.6 64 3.9 NNW 20 28 11 15 1018.6 1018.6 0.0
25/03:00pm 19.9 17.1 13.1 65 3.8 NNW 20 26 11 14 1018.7 1018.7 0.0
25/02:30pm 19.7 16.3 12.5 63 4.0 N 22 26 12 14 1018.7 1018.7 0.0
25/02:00pm 19.6 16.0 11.9 61 4.3 N 22 28 12 15 1018.9 1018.9 0.0
25/01:30pm 19.8 16.9 12.8 64 3.9 N 20 26 11 14 1019.1 1019.1 0.0
25/01:00pm 19.6 16.7 12.8 65 3.8 N 20 26 11 14 1019.3 1019.3 0.0
25/12:30pm 19.4 16.3 12.2 63 4.0 N 20 24 11 13 1019.8 1019.8 0.0
25/12:00pm 19.4 16.6 12.7 65 3.8 N 19 24 10 13 1020.5 1020.5 0.0
25/11:30am 18.8 16.2 11.9 64 3.8 N 17 20 9 11 1020.9 1020.9 0.0
25/11:00am 18.3 16.9 12.1 67 3.4 N 11 15 6 8 1021.3 1021.3 0.0
25/10:30am 18.0 15.7 11.6 66 3.5 NNE 15 17 8 9 1021.5 1021.5 0.0
25/10:00am 17.6 15.5 12.5 72 2.8 NNE 15 19 8 10 1021.5 1021.5 0.0
25/09:30am 16.6 14.5 12.4 76 2.3 NE 15 19 8 10 1021.5 1021.5 0.0
25/09:00am 15.1 13.9 12.8 86 1.3 NE 11 17 6 9 1021.6 1021.6 0.2
25/08:30am 13.8 12.0 12.2 90 0.9 NNE 13 15 7 8 1021.7 1021.7 0.2
25/08:00am 13.1 13.0 12.2 94 0.5 NE 4 9 2 5 1021.7 1021.7 0.2
25/07:30am 11.9 11.4 10.8 93 0.6 ENE 4 6 2 3 1021.1 1021.1 0.2
25/07:00am 11.8 11.3 10.7 93 0.6 NE 4 6 2 3 1020.9 1020.9 0.2
25/06:30am 11.9 11.4 10.8 93 0.6 NE 4 6 2 3 1020.7 1020.7 0.2
25/06:00am 12.4 11.7 11.5 94 0.5 NE 6 9 3 5 1020.5 1020.5 0.2
25/05:30am 12.5 12.2 11.6 94 0.5 NE 4 6 2 3 1020.5 1020.5 0.2
25/05:00am 12.8 12.1 11.9 94 0.5 ENE 7 11 4 6 1020.4 1020.4 0.2
25/04:30am 13.0 12.4 12.2 95 0.4 NE 7 11 4 6 1020.5 1020.5 0.2
25/04:00am 12.9 12.4 12.1 95 0.4 E 6 9 3 5 1020.7 1020.7 0.2
25/03:30am 12.6 12.8 11.8 95 0.4 E 2 7 1 4 1020.5 1020.5 0.2
25/03:00am 12.4 12.5 11.5 94 0.5 E 2 6 1 3 1020.7 1020.7 0.2
25/02:30am 12.8 13.0 11.7 93 0.6 E 2 6 1 3 1020.9 1020.9 0.2
25/02:00am 13.2 13.5 12.1 93 0.6 E 2 4 1 2 1021.0 1021.0 0.2
25/01:30am 13.1 13.7 11.8 92 0.7 CALM 0 0 0 0 1021.0 1021.0 0.2
25/01:00am 13.3 13.5 11.9 91 0.7 E 2 4 1 2 1021.2 1021.2 0.2
25/12:30am 13.3 13.5 11.7 90 0.9 E 2 6 1 3 1021.4 1021.4 0.2
25/12:00am 13.7 13.6 12.1 90 0.9 E 4 9 2 5 1021.5 1021.5 0.2
 
Date/Time
WST
Temp
°C
App
Temp
°C
Dew
Point
°C
Rel
Hum
%
Delta-T
°C
Wind Press
QNH
hPa
Press
MSL
hPa
Rain since
9am
mm
Dir  Spd
km/h
Gust
km/h
Spd
kts
Gust
kts
24/11:30pm 13.6 13.5 12.0 90 0.9 ESE 4 7 2 4 1021.5 1021.5 0.2
24/11:00pm 13.8 14.4 12.0 89 1.0 CALM 0 2 0 1 1021.5 1021.5 0.2
24/10:30pm 14.2 14.9 12.2 88 1.1 CALM 0 4 0 2 1021.8 1021.8 0.2
24/10:00pm 14.3 14.6 12.2 87 1.1 ESE 2 4 1 2 1021.8 1021.8 0.2
24/09:30pm 14.7 14.3 12.4 86 1.3 ESE 6 7 3 4 1021.8 1021.8 0.2
24/09:00pm 14.9 14.4 12.2 84 1.5 SSW 6 7 3 4 1021.9 1021.9 0.2
24/08:30pm 15.5 15.2 12.8 84 1.5 SSW 6 6 3 3 1022.1 1022.1 0.2
24/08:00pm 15.9 16.1 13.2 84 1.5 SSW 4 6 2 3 1021.9 1021.9 0.2
24/07:30pm 15.9 16.4 12.8 82 1.7 SSW 2 4 1 2 1021.7 1021.7 0.2
24/07:00pm 16.4 17.2 12.6 78 2.1 CALM 0 0 0 0 1021.6 1021.6 0.2
24/06:30pm 17.1 17.4 12.2 73 2.7 SSW 2 4 1 2 1021.3 1021.3 0.2
24/06:00pm 17.7 17.3 12.4 71 2.9 SSW 6 9 3 5 1021.1 1021.1 0.2
24/05:30pm 18.0 17.9 12.0 68 3.3 SW 4 7 2 4 1020.8 1020.8 0.2
24/05:00pm 18.8 18.3 11.9 64 3.8 SW 6 11 3 6 1020.8 1020.8 0.2
24/04:30pm 19.1 18.6 11.9 63 4.0 SSW 6 9 3 5 1020.6 1020.6 0.2

Other Formats:

Comma delimited format used in spreadsheet applications
http://www.bom.gov.au/fwo/IDW60801/IDW60801.94605.axf

JavaScript Object Notation format (JSON) in row-major order
http://www.bom.gov.au/fwo/IDW60801/IDW60801.94605.json